sensor_id;sensor_type;location;lat;lon;timestamp;pressure;altitude;pressure_sealevel;temperature;humidity
15558;BME280;7880;50.110;9.372;2023-04-24T00:03:21;10.663835105864564;;;10.437;100.0
15558;BME280;7880;50.110;9.372;2023-04-24T00:08:23;10.729385162889958;;;10.437;100.0
15558;BME280;7880;50.110;9.372;2023-04-24T00:13:28;10.694088972226018;;;10.5;100.0
15558;BME280;7880;50.110;9.372;2023-04-24T00:18:30;10.72434284906485;;;10.437;100.0
15558;BME280;7880;50.110;9.372;2023-04-24T00:23:34;10.729385162889958;;;10.437;100.0
15558;BME280;7880;50.110;9.372;2023-04-24T00:28:38;10.714258222287754;;;10.437;100.0
15558;BME280;7880;50.110;9.372;2023-04-24T00:33:43;10.658792795822956;;;10.437;100.0
15558;BME280;7880;50.110;9.372;2023-04-24T00:38:47;10.67896203773562;;;10.437;100.0
15558;BME280;7880;50.110;9.372;2023-04-24T00:43:51;10.542819745192537;;;10.312;100.0
15558;BME280;7880;50.110;9.372;2023-04-24T00:48:56;10.709215909335763;;;10.375;100.0
15558;BME280;7880;50.110;9.372;2023-04-24T00:54:00;10.557946656108834;;;10.312;100.0
15558;BME280;7880;50.110;9.372;2023-04-24T00:59:05;10.573073569644475;;;10.312;100.0
15558;BME280;7880;50.110;9.372;2023-04-24T01:04:11;10.401635369617726;;;10.187;100.0
15558;BME280;7880;50.110;9.372;2023-04-24T01:09:15;10.270535796607145;;;10.062;100.0
15558;BME280;7880;50.110;9.372;2023-04-24T01:14:17;10.46214293121011;;;10.187;100.0
15558;BME280;7880;50.110;9.372;2023-04-24T01:19:27;10.416762256086804;;;10.187;100.0
15558;BME280;7880;50.110;9.372;2023-04-24T01:24:30;10.472227528883376;;;10.25;100.0
15558;BME280;7880;50.110;9.372;2023-04-24T01:29:34;10.401635369617726;;;10.187;100.0
15558;BME280;7880;50.110;9.372;2023-04-24T01:34:40;10.487354427576065;;;10.312;100.0
15558;BME280;7880;50.110;9.372;2023-04-24T01:39:42;10.497439028159715;;;10.312;100.0
15558;BME280;7880;50.110;9.372;2023-04-24T01:44:47;10.487354427576065;;;10.312;100.0
15558;BME280;7880;50.110;9.372;2023-04-24T01:49:56;10.104140468034894;;;10.0;100.0
15558;BME280;7880;50.110;9.372;2023-04-24T01:54:28;10.215070651867427;;;10.0;100.0
15558;BME280;7880;50.110;9.372;2023-04-24T01:59:33;10.144478700403123;;;10.0;100.0
15558;BME280;7880;50.110;9.372;2023-04-24T02:04:37;10.33104326739558;;;10.0;100.0
15558;BME280;7880;50.110;9.372;2023-04-24T02:09:40;10.199943800322945;;;10.062;100.0
15558;BME280;7880;50.110;9.372;2023-04-24T02:14:43;10.31087410580949;;;10.125;100.0
15558;BME280;7880;50.110;9.372;2023-04-24T02:19:47;10.411719960306073;;;10.187;100.0
15558;BME280;7880;50.110;9.372;2023-04-24T02:24:50;10.250366648990894;;;10.125;100.0
15558;BME280;7880;50.110;9.372;2023-04-24T02:29:55;10.260451222216943;;;10.062;100.0
15558;BME280;7880;50.110;9.372;2023-04-24T02:34:59;10.204986083880067;;;10.062;100.0
15558;BME280;7880;50.110;9.372;2023-04-24T02:40:04;10.31087410580949;;;10.125;100.0
15558;BME280;7880;50.110;9.372;2023-04-24T02:45:08;10.240282076928997;;;10.062;100.0
15558;BME280;7880;50.110;9.372;2023-04-24T02:50:13;10.31087410580949;;;10.125;100.0
15558;BME280;7880;50.110;9.372;2023-04-24T02:55:17;10.230197506031255;;;10.062;100.0
15558;BME280;7880;50.110;9.372;2023-04-24T03:00:21;10.245324362814426;;;10.062;100.0
15558;BME280;7880;50.110;9.372;2023-04-24T03:05:27;10.235239791334607;;;10.062;100.0
15558;BME280;7880;50.110;9.372;2023-04-24T03:10:33;10.099098190298538;;;10.0;100.0
15558;BME280;7880;50.110;9.372;2023-04-24T03:15:38;10.285662660375237;;;10.062;100.0
15558;BME280;7880;50.110;9.372;2023-04-24T03:20:45;10.099098190298538;;;10.0;100.0
15558;BME280;7880;50.110;9.372;2023-04-24T03:25:44;9.993210425064898;;;9.875;100.0
15558;BME280;7880;50.110;9.372;2023-04-24T03:30:54;10.04867542894208;;;9.875;100.0
15558;BME280;7880;50.110;9.372;2023-04-24T03:35:51;9.998252696689452;;;9.812;100.0
15558;BME280;7880;50.110;9.372;2023-04-24T03:40:57;10.063802254293114;;;9.875;100.0
15558;BME280;7880;50.110;9.372;2023-04-24T03:46:21;9.998252696689452;;;9.875;100.0
15558;BME280;7880;50.110;9.372;2023-04-24T03:51:05;10.028506332548568;;;9.875;100.0
15558;BME280;7880;50.110;9.372;2023-04-24T03:56:10;10.00833724081167;;;9.875;100.0
15558;BME280;7880;50.110;9.372;2023-04-24T04:01:37;9.912534118653275;;;9.812;100.0
15558;BME280;7880;50.110;9.372;2023-04-24T04:06:19;9.932703188271262;;;9.812;100.0
15558;BME280;7880;50.110;9.372;2023-04-24T04:11:22;9.882280522957444;;;9.812;100.0
15558;BME280;7880;50.110;9.372;2023-04-24T04:16:26;9.967999071307712;;;9.75;100.0
15558;BME280;7880;50.110;9.372;2023-04-24T04:21:32;9.816731101559707;;;9.687;100.0
15558;BME280;7880;50.110;9.372;2023-04-24T04:26:38;9.756223987002159;;;9.562;100.0
15558;BME280;7880;50.110;9.372;2023-04-24T04:31:46;9.483942490123445;;;9.437;100.0
15558;BME280;7880;50.110;9.372;2023-04-24T04:36:52;9.45368904285715;;;9.375;100.0
15558;BME280;7880;50.110;9.372;2023-04-24T04:41:50;9.549491661810317;;;9.375;100.0
15558;BME280;7880;50.110;9.372;2023-04-24T04:46:53;9.373013234703103;;;9.187;100.0
15558;BME280;7880;50.110;9.372;2023-04-24T04:51:57;9.231830749713117;;;9.187;100.0
15558;BME280;7880;50.110;9.372;2023-04-24T04:57:10;9.246957433619537;;;9.062;100.0
15558;BME280;7880;50.110;9.372;2023-04-24T05:02:03;9.115859593451024;;;9.0;100.0
15558;BME280;7880;50.110;9.372;2023-04-24T05:07:20;9.110817372758174;;;9.0;100.0
15558;BME280;7880;50.110;9.372;2023-04-24T05:12:18;8.899044366466114;;;8.812;100.0
15558;BME280;7880;50.110;9.372;2023-04-24T05:17:15;9.004930805438198;;;8.875;100.0
15558;BME280;7880;50.110;9.372;2023-04-24T05:22:21;9.020057450054447;;;8.875;100.0
15558;BME280;7880;50.110;9.372;2023-04-24T05:27:22;8.91417099274695;;;8.812;100.0
15558;BME280;7880;50.110;9.372;2023-04-24T05:32:27;8.823411274352111;;;8.75;100.0
15558;BME280;7880;50.110;9.372;2023-04-24T05:37:33;8.813326867017896;;;8.687;100.0
15558;BME280;7880;50.110;9.372;2023-04-24T05:42:35;8.803242460847832;;;8.687;100.0
15558;BME280;7880;50.110;9.372;2023-04-24T05:47:40;8.747778247721726;;;8.625;100.0
15558;BME280;7880;50.110;9.372;2023-04-24T05:52:46;8.778031450515845;;;8.625;100.0
15558;BME280;7880;50.110;9.372;2023-04-24T05:57:49;8.97971973689855;;;8.812;100.0
15558;BME280;7880;50.110;9.372;2023-04-24T06:02:56;8.883917742804623;;;8.812;100.0
15558;BME280;7880;50.110;9.372;2023-04-24T06:08:00;8.747778247721726;;;8.625;100.0
15558;BME280;7880;50.110;9.372;2023-04-24T06:13:04;9.090648492897163;;;8.937;100.0
15558;BME280;7880;50.110;9.372;2023-04-24T06:18:11;8.97971973689855;;;8.875;100.0
15558;BME280;7880;50.110;9.372;2023-04-24T06:23:13;8.83349568285048;;;8.75;100.0
15558;BME280;7880;50.110;9.372;2023-04-24T06:28:23;8.934339831862598;;;8.812;100.0
15558;BME280;7880;50.110;9.372;2023-04-24T06:33:22;9.085606273659504;;;8.937;100.0
15558;BME280;7880;50.110;9.372;2023-04-24T06:38:26;9.221746295230696;;;9.125;100.0
15558;BME280;7880;50.110;9.372;2023-04-24T06:43:31;9.302421963686356;;;9.187;100.0
15558;BME280;7880;50.110;9.372;2023-04-24T06:48:46;9.383097706647822;;;9.375;100.0
15558;BME280;7880;50.110;9.372;2023-04-24T06:53:47;9.367970999167301;;;9.375;100.0
15558;BME280;7880;50.110;9.372;2023-04-24T06:58:40;9.594871886406327;;;9.5;100.0
15558;BME280;7880;50.110;9.372;2023-04-24T07:03:46;9.645294385828311;;;9.562;100.0
15558;BME280;7880;50.110;9.372;2023-04-24T07:08:51;9.519238191843034;;;9.5;100.0
15558;BME280;7880;50.110;9.372;2023-04-24T07:13:59;9.317548659816385;;;9.25;100.0
15558;BME280;7880;50.110;9.372;2023-04-24T07:19:00;9.125944035709836;;;9.125;100.0
15558;BME280;7880;50.110;9.372;2023-04-24T07:24:04;9.12090181443491;;;9.125;100.0
15558;BME280;7880;50.110;9.372;2023-04-24T07:29:10;8.939382042369107;;;8.875;100.0
15558;BME280;7880;50.110;9.372;2023-04-24T07:34:14;9.060395181836792;;;9.0;100.0
15558;BME280;7880;50.110;9.372;2023-04-24T07:39:19;9.277210809290409;;;9.125;100.0
15558;BME280;7880;50.110;9.372;2023-04-24T07:44:23;9.050310747144977;;;9.0;100.0
15558;BME280;7880;50.110;9.372;2023-04-24T07:49:28;9.100732932245592;;;9.062;100.0
15558;BME280;7880;50.110;9.372;2023-04-24T07:54:35;8.999888591148192;;;8.937;100.0
15558;BME280;7880;50.110;9.372;2023-04-24T07:59:38;8.984761950024403;;;8.937;100.0
15558;BME280;7880;50.110;9.372;2023-04-24T08:04:43;8.989804163441296;;;8.875;100.0
15558;BME280;7880;50.110;9.372;2023-04-24T08:09:46;9.009973020019242;;;8.937;100.0
15558;BME280;7880;50.110;9.372;2023-04-24T08:14:51;9.095690712425858;;;8.937;100.0
15558;BME280;7880;50.110;9.372;2023-04-24T08:20:01;9.312506427482003;;;9.187;100.0
15558;BME280;7880;50.110;9.372;2023-04-24T08:24:59;9.277210809290409;;;9.25;100.0
15558;BME280;7880;50.110;9.372;2023-04-24T08:30:07;9.352844294306124;;;9.25;100.0
15558;BME280;7880;50.110;9.372;2023-04-24T08:35:11;9.221746295230696;;;9.187;100.0
15558;BME280;7880;50.110;9.372;2023-04-24T08:40:16;9.65033663737122;;;9.5;100.0
15558;BME280;7880;50.110;9.372;2023-04-24T08:45:20;9.65033663737122;;;9.687;100.0
15558;BME280;7880;50.110;9.372;2023-04-24T08:50:21;9.604956383962417;;;9.625;100.0
15558;BME280;7880;50.110;9.372;2023-04-24T08:55:25;9.8066465795564;;;9.687;100.0
15558;BME280;7880;50.110;9.372;2023-04-24T09:00:29;9.967999071307712;;;10.0;100.0
15558;BME280;7880;50.110;9.372;2023-04-24T09:05:36;9.685632406320655;;;9.75;100.0
15558;BME280;7880;50.110;9.372;2023-04-24T09:10:39;9.67050564645324;;;9.625;100.0
15558;BME280;7880;50.110;9.372;2023-04-24T09:15:43;9.82177336299792;;;9.75;100.0
15558;BME280;7880;50.110;9.372;2023-04-24T09:20:57;9.700759168807418;;;9.687;100.0
15558;BME280;7880;50.110;9.372;2023-04-24T09:26:02;9.786477539042243;;;9.687;100.0
15558;BME280;7880;50.110;9.372;2023-04-24T09:31:04;9.74613947198377;;;9.687;100.0
15558;BME280;7880;50.110;9.372;2023-04-24T09:36:05;9.665463393746176;;;9.687;100.0
15558;BME280;7880;50.110;9.372;2023-04-24T09:41:13;9.473858006537194;;;9.437;100.0
15558;BME280;7880;50.110;9.372;2023-04-24T09:46:14;9.35788652896881;;;9.312;100.0
15558;BME280;7880;50.110;9.372;2023-04-24T09:51:33;9.378055470529944;;;9.312;100.0
15558;BME280;7880;50.110;9.372;2023-04-24T09:56:25;9.433520083833718;;;9.375;100.0
15558;BME280;7880;50.110;9.372;2023-04-24T10:01:30;9.317548659816385;;;9.375;100.0
15558;BME280;7880;50.110;9.372;2023-04-24T10:07:43;9.373013234703103;;;9.312;100.0
15558;BME280;7880;50.110;9.372;2023-04-24T10:12:48;9.12090181443491;;;9.125;100.0
15558;BME280;7880;50.110;9.372;2023-04-24T10:17:54;9.231830749713117;;;9.187;100.0
15558;BME280;7880;50.110;9.372;2023-04-24T10:23:21;9.292337501054863;;;9.25;100.0
15558;BME280;7880;50.110;9.372;2023-04-24T10:28:27;9.322590892441804;;;9.25;100.0
15558;BME280;7880;50.110;9.372;2023-04-24T10:33:42;9.2620841201453;;;9.25;100.0
15558;BME280;7880;50.110;9.372;2023-04-24T10:38:35;9.267126349569299;;;9.25;100.0
15558;BME280;7880;50.110;9.372;2023-04-24T10:43:44;9.241915205359692;;;9.25;100.0
15558;BME280;7880;50.110;9.372;2023-04-24T10:48:52;9.332675358565757;;;9.25;100.0
15558;BME280;7880;50.110;9.372;2023-04-24T10:53:50;9.352844294306124;;;9.375;100.0
15558;BME280;7880;50.110;9.372;2023-04-24T10:58:55;9.549491661810317;;;9.5;100.0
15558;BME280;7880;50.110;9.372;2023-04-24T11:06:00;9.599914135038853;;;9.562;100.0
15558;BME280;7880;50.110;9.372;2023-04-24T11:10:45;9.801604318991304;;;9.687;100.0
15558;BME280;7880;50.110;9.372;2023-04-24T11:16:12;9.534364925517002;;;9.5;100.0
15558;BME280;7880;50.110;9.372;2023-04-24T11:20:54;9.383097706647822;;;9.375;100.0
15558;BME280;7880;50.110;9.372;2023-04-24T11:26:10;9.30746419543866;;;9.312;100.0
15558;BME280;7880;50.110;9.372;2023-04-24T11:31:34;9.075521836057305;;;9.062;100.0
15558;BME280;7880;50.110;9.372;2023-04-24T11:36:13;9.090648492897163;;;9.0;100.0
15558;BME280;7880;50.110;9.372;2023-04-24T11:41:18;9.362928763922536;;;9.187;100.0
15558;BME280;7880;50.110;9.372;2023-04-24T11:46:22;9.246957433619537;;;9.25;100.0
15558;BME280;7880;50.110;9.372;2023-04-24T11:51:27;9.403266654029721;;;9.312;100.0
15558;BME280;7880;50.110;9.372;2023-04-24T11:56:32;9.246957433619537;;;9.187;100.0
15558;BME280;7880;50.110;9.372;2023-04-24T12:01:43;9.76126624494791;;;9.562;100.0
15558;BME280;7880;50.110;9.372;2023-04-24T12:06:59;9.791519798734225;;;9.687;100.0
15558;BME280;7880;50.110;9.372;2023-04-24T12:12:06;9.594871886406327;;;9.562;100.0
15558;BME280;7880;50.110;9.372;2023-04-24T12:17:25;9.912534118653275;;;9.75;100.0
15558;BME280;7880;50.110;9.372;2023-04-24T12:22:43;10.159605542343343;;;10.0;100.0
15558;BME280;7880;50.110;9.372;2023-04-24T12:27:23;10.361297018505866;;;10.312;100.0
15558;BME280;7880;50.110;9.372;2023-04-24T12:32:41;10.068844529992202;;;10.0;100.0
15558;BME280;7880;50.110;9.372;2023-04-24T12:37:34;10.184816951397806;;;10.062;100.0
15558;BME280;7880;50.110;9.372;2023-04-24T12:42:42;10.72434284906485;;;10.562;100.0
15558;BME280;7880;50.110;9.372;2023-04-24T12:47:44;11.047051520604873;;;10.937;100.0
15558;BME280;7880;50.110;9.372;2023-04-24T12:52:47;10.976458896842086;;;10.937;100.0
15558;BME280;7880;50.110;9.372;2023-04-24T12:57:54;10.815104542445624;;;10.812;100.0
15558;BME280;7880;50.110;9.372;2023-04-24T13:03:03;10.401635369617726;;;10.5;100.0
15558;BME280;7880;50.110;9.372;2023-04-24T13:08:03;10.426846848521382;;;10.375;100.0
15558;BME280;7880;50.110;9.372;2023-04-24T13:13:08;10.215070651867427;;;10.187;100.0
15558;BME280;7880;50.110;9.372;2023-04-24T13:18:11;10.094055912853218;;;10.125;100.0
15558;BME280;7880;50.110;9.372;2023-04-24T13:23:16;10.739469791413285;;;10.562;100.0
15558;BME280;7880;50.110;9.372;2023-04-24T13:28:20;10.487354427576065;;;10.625;100.0
15558;BME280;7880;50.110;9.372;2023-04-24T13:33:24;10.275578084238806;;;10.25;100.0
15558;BME280;7880;50.110;9.372;2023-04-24T13:38:28;10.028506332548568;;;10.0;100.0
15558;BME280;7880;50.110;9.372;2023-04-24T13:43:32;9.529322680667974;;;9.437;100.0
15558;BME280;7880;50.110;9.372;2023-04-24T13:48:36;10.220112936297664;;;9.937;100.0
15558;BME280;7880;50.110;9.372;2023-04-24T13:53:42;9.816731101559707;;;9.75;100.0
15558;BME280;7880;50.110;9.372;2023-04-24T13:58:43;9.993210425064898;;;9.812;100.0
15558;BME280;7880;50.110;9.372;2023-04-24T14:03:50;9.645294385828311;;;9.562;100.0
15558;BME280;7880;50.110;9.372;2023-04-24T14:08:51;9.796562058717246;;;9.625;100.0
15558;BME280;7880;50.110;9.372;2023-04-24T14:13:55;9.8923650536919;;;9.812;100.0
15558;BME280;7880;50.110;9.372;2023-04-24T14:19:00;9.967999071307712;;;9.875;100.0
15558;BME280;7880;50.110;9.372;2023-04-24T14:24:08;10.3713816045376;;;10.187;100.0
15558;BME280;7880;50.110;9.372;2023-04-24T14:29:09;10.12935186108225;;;10.062;100.0
15558;BME280;7880;50.110;9.372;2023-04-24T14:34:14;9.947829993540655;;;9.875;100.0
15558;BME280;7880;50.110;9.372;2023-04-24T14:39:17;9.4789002481848;;;9.562;100.0
15558;BME280;7880;50.110;9.372;2023-04-24T14:44:20;8.742736048274674;;;8.75;100.0
15558;BME280;7880;50.110;9.372;2023-04-24T14:49:26;8.778031450515845;;;8.562;100.0
15558;BME280;7880;50.110;9.372;2023-04-24T14:54:31;8.747778247721726;;;8.562;100.0
15558;BME280;7880;50.110;9.372;2023-04-24T14:59:38;8.732651650253683;;;8.562;100.0
15558;BME280;7880;50.110;9.372;2023-04-24T15:04:45;8.989804163441296;;;8.75;100.0
15558;BME280;7880;50.110;9.372;2023-04-24T15:09:47;9.277210809290409;;;9.0;100.0
15558;BME280;7880;50.110;9.372;2023-04-24T15:14:49;9.443604562763358;;;9.312;100.0
15558;BME280;7880;50.110;9.372;2023-04-24T15:19:53;9.559576154127717;;;9.312;100.0
15558;BME280;7880;50.110;9.372;2023-04-24T15:24:56;9.665463393746176;;;9.5;100.0
15558;BME280;7880;50.110;9.372;2023-04-24T15:30:01;9.458731283340603;;;9.375;100.0
15558;BME280;7880;50.110;9.372;2023-04-24T15:35:08;9.579745142254978;;;9.5;100.0
15558;BME280;7880;50.110;9.372;2023-04-24T15:40:12;9.695716914354126;;;9.562;100.0
15558;BME280;7880;50.110;9.372;2023-04-24T15:45:14;9.61504088268266;;;9.562;100.0
15558;BME280;7880;50.110;9.372;2023-04-24T15:50:18;9.514195947867119;;;9.437;100.0
15558;BME280;7880;50.110;9.372;2023-04-24T15:55:23;9.61504088268266;;;9.562;100.0
15558;BME280;7880;50.110;9.372;2023-04-24T16:00:33;9.604956383962417;;;9.5;100.0
15558;BME280;7880;50.110;9.372;2023-04-24T16:05:34;9.857069201214472;;;9.75;100.0
15558;BME280;7880;50.110;9.372;2023-04-24T16:10:41;9.604956383962417;;;9.625;100.0
15558;BME280;7880;50.110;9.372;2023-04-24T16:15:42;9.534364925517002;;;9.5;100.0
15558;BME280;7880;50.110;9.372;2023-04-24T16:20:46;9.544449416088174;;;9.5;100.0
15558;BME280;7880;50.110;9.372;2023-04-24T16:25:51;9.579745142254978;;;9.5;100.0
15558;BME280;7880;50.110;9.372;2023-04-24T16:31:08;9.604956383962417;;;9.562;100.0
15558;BME280;7880;50.110;9.372;2023-04-24T16:35:59;9.705801423551748;;;9.562;100.0
15558;BME280;7880;50.110;9.372;2023-04-24T16:41:03;9.660421141330152;;;9.625;100.0
15558;BME280;7880;50.110;9.372;2023-04-24T16:46:22;9.846984674554552;;;9.75;100.0
15558;BME280;7880;50.110;9.372;2023-04-24T16:51:12;9.867153729038545;;;9.75;100.0
15558;BME280;7880;50.110;9.372;2023-04-24T16:56:21;9.907491851976374;;;9.812;100.0
15558;BME280;7880;50.110;9.372;2023-04-24T17:01:20;9.685632406320655;;;9.687;100.0
15558;BME280;7880;50.110;9.372;2023-04-24T17:06:42;9.857069201214472;;;9.687;100.0
15558;BME280;7880;50.110;9.372;2023-04-24T17:11:08;9.857069201214472;;;9.812;100.0
15558;BME280;7880;50.110;9.372;2023-04-24T17:16:15;9.8066465795564;;;9.75;100.0
15558;BME280;7880;50.110;9.372;2023-04-24T17:21:18;9.801604318991304;;;9.812;100.0
15558;BME280;7880;50.110;9.372;2023-04-24T17:26:22;9.655378889205167;;;9.687;100.0
15558;BME280;7880;50.110;9.372;2023-04-24T17:31:26;9.700759168807418;;;9.687;100.0
15558;BME280;7880;50.110;9.372;2023-04-24T17:36:31;9.705801423551748;;;9.687;100.0
15558;BME280;7880;50.110;9.372;2023-04-24T17:41:36;9.665463393746176;;;9.625;100.0
15558;BME280;7880;50.110;9.372;2023-04-24T17:46:40;9.65033663737122;;;9.625;100.0
15558;BME280;7880;50.110;9.372;2023-04-24T17:51:52;9.645294385828311;;;9.625;100.0
15558;BME280;7880;50.110;9.372;2023-04-24T17:56:52;9.630167632945813;;;9.562;100.0
15558;BME280;7880;50.110;9.372;2023-04-24T18:01:57;9.519238191843034;;;9.5;100.0
15558;BME280;7880;50.110;9.372;2023-04-24T18:07:00;9.514195947867119;;;9.5;100.0
15558;BME280;7880;50.110;9.372;2023-04-24T18:12:05;9.49906921768561;;;9.437;100.0
15558;BME280;7880;50.110;9.372;2023-04-24T18:17:08;9.49906921768561;;;9.437;100.0
15558;BME280;7880;50.110;9.372;2023-04-24T18:22:32;9.428477844805457;;;9.437;100.0
15558;BME280;7880;50.110;9.372;2023-04-24T18:27:33;9.423435606068233;;;9.437;100.0
15558;BME280;7880;50.110;9.372;2023-04-24T18:32:34;9.418393367622048;;;9.437;100.0
15558;BME280;7880;50.110;9.372;2023-04-24T18:37:39;9.473858006537194;;;9.437;100.0
15558;BME280;7880;50.110;9.372;2023-04-24T18:42:41;9.594871886406327;;;9.5;100.0
15558;BME280;7880;50.110;9.372;2023-04-24T18:47:44;9.514195947867119;;;9.5;100.0
15558;BME280;7880;50.110;9.372;2023-04-24T18:52:48;9.463773524115094;;;9.437;100.0
15558;BME280;7880;50.110;9.372;2023-04-24T18:57:52;9.35788652896881;;;9.312;100.0
15558;BME280;7880;50.110;9.372;2023-04-24T19:02:59;9.161239592783385;;;9.125;100.0
15558;BME280;7880;50.110;9.372;2023-04-24T19:08:00;9.186450713709927;;;9.125;100.0
15558;BME280;7880;50.110;9.372;2023-04-24T19:13:05;8.97971973689855;;;9.0;100.0
15558;BME280;7880;50.110;9.372;2023-04-24T19:18:10;8.934339831862598;;;8.875;100.0
15558;BME280;7880;50.110;9.372;2023-04-24T19:23:14;8.959550887305522;;;8.875;100.0
15558;BME280;7880;50.110;9.372;2023-04-24T19:28:20;8.863748915330508;;;8.812;100.0
15558;BME280;7880;50.110;9.372;2023-04-24T19:33:25;8.798200258199358;;;8.75;100.0
15558;BME280;7880;50.110;9.372;2023-04-24T19:38:28;8.757862647488945;;;8.687;100.0
15558;BME280;7880;50.110;9.372;2023-04-24T19:49:16;8.636849927116419;;;8.562;100.0
15558;BME280;7880;50.110;9.372;2023-04-24T19:54:20;8.626765541319037;;;8.5;100.0
15558;BME280;7880;50.110;9.372;2023-04-24T19:59:25;8.55113268494606;;;8.437;100.0
15558;BME280;7880;50.110;9.372;2023-04-24T20:04:36;8.455331160878995;;;8.375;100.0
15558;BME280;7880;50.110;9.372;2023-04-24T20:09:41;8.566259250981966;;;8.5;100.0
15558;BME280;7880;50.110;9.372;2023-04-24T20:14:46;8.76794704842032;;;8.625;100.0
15558;BME280;7880;50.110;9.372;2023-04-24T20:19:54;8.677187481947476;;;8.562;100.0
15558;BME280;7880;50.110;9.372;2023-04-24T20:24:57;8.455331160878995;;;8.375;100.0
15558;BME280;7880;50.110;9.372;2023-04-24T20:30:02;8.425078069843584;;;8.312;100.0
15558;BME280;7880;50.110;9.372;2023-04-24T20:35:07;8.233475403260673;;;8.187;100.0
15558;BME280;7880;50.110;9.372;2023-04-24T20:40:13;8.253644085215637;;;8.187;100.0
15558;BME280;7880;50.110;9.372;2023-04-24T20:45:19;8.273812771827215;;;8.125;100.0
15558;BME280;7880;50.110;9.372;2023-04-24T20:50:22;8.30406581047573;;;8.187;100.0
15558;BME280;7880;50.110;9.372;2023-04-24T20:55:26;8.051957475213566;;;8.0;100.0
15558;BME280;7880;50.110;9.372;2023-04-24T21:00:30;8.228433233499526;;;8.062;100.0
15558;BME280;7880;50.110;9.372;2023-04-24T21:05:35;8.051957475213566;;;7.937;100.0
15558;BME280;7880;50.110;9.372;2023-04-24T21:10:39;8.021704523876542;;;7.937;100.0
15558;BME280;7880;50.110;9.372;2023-04-24T21:15:43;7.971282961597899;;;7.875;100.0
15558;BME280;7880;50.110;9.372;2023-04-24T21:20:49;7.885566372517497;;;7.812;100.0
15558;BME280;7880;50.110;9.372;2023-04-24T21:25:55;7.941030038200552;;;7.812;100.0
15558;BME280;7880;50.110;9.372;2023-04-24T21:30:58;7.865397775545716;;;7.75;100.0
15558;BME280;7880;50.110;9.372;2023-04-24T21:36:01;7.920861428423086;;;7.812;100.0
15558;BME280;7880;50.110;9.372;2023-04-24T21:41:10;7.920861428423086;;;7.812;100.0
15558;BME280;7880;50.110;9.372;2023-04-24T21:46:10;7.87548207344953;;;7.812;100.0
15558;BME280;7880;50.110;9.372;2023-04-24T21:51:21;7.925903580430895;;;7.812;100.0
15558;BME280;7880;50.110;9.372;2023-04-24T21:56:21;7.87548207344953;;;7.812;100.0
15558;BME280;7880;50.110;9.372;2023-04-24T22:01:24;7.865397775545716;;;7.75;100.0
15558;BME280;7880;50.110;9.372;2023-04-24T22:06:31;7.850271330872784;;;7.687;100.0
15558;BME280;7880;50.110;9.372;2023-04-24T22:11:38;7.910777125280584;;;7.812;100.0
15558;BME280;7880;50.110;9.372;2023-04-24T22:15:20;7.784723434224725;;;7.75;100.0
15558;BME280;7880;50.110;9.372;2023-04-24T22:20:25;7.885566372517497;;;7.812;100.0
15558;BME280;7880;50.110;9.372;2023-04-24T22:26:03;7.87548207344953;;;7.75;100.0
15558;BME280;7880;50.110;9.372;2023-04-24T22:31:20;7.840187035879353;;;7.75;100.0
15558;BME280;7880;50.110;9.372;2023-04-24T22:36:12;7.890608522488037;;;7.812;100.0
15558;BME280;7880;50.110;9.372;2023-04-24T22:41:16;7.830102742050076;;;7.75;100.0
15558;BME280;7880;50.110;9.372;2023-04-24T22:46:20;7.799849867547164;;;7.687;100.0
15558;BME280;7880;50.110;9.372;2023-04-24T22:51:24;7.7242177271284165;;;7.687;100.0
15558;BME280;7880;50.110;9.372;2023-04-24T22:56:28;7.759512717841426;;;7.687;100.0
15558;BME280;7880;50.110;9.372;2023-04-24T23:01:33;7.830102742050076;;;7.75;100.0
15558;BME280;7880;50.110;9.372;2023-04-24T23:06:36;7.7242177271284165;;;7.687;100.0
15558;BME280;7880;50.110;9.372;2023-04-24T23:11:43;7.7242177271284165;;;7.687;100.0
15558;BME280;7880;50.110;9.372;2023-04-24T23:16:45;7.688922750676284;;;7.625;100.0
15558;BME280;7880;50.110;9.372;2023-04-24T23:21:50;7.719175586762139;;;7.625;100.0
15558;BME280;7880;50.110;9.372;2023-04-24T23:26:59;7.542700857296586;;;7.5;100.0
15558;BME280;7880;50.110;9.372;2023-04-24T23:32:03;7.492279571504332;;;7.5;100.0
15558;BME280;7880;50.110;9.372;2023-04-24T23:37:01;7.567911511106649;;;7.5;100.0
15558;BME280;7880;50.110;9.372;2023-04-24T23:42:07;7.436816190747777;;;7.437;100.0
15558;BME280;7880;50.110;9.372;2023-04-24T23:47:12;7.5275744685030075;;;7.437;100.0
15558;BME280;7880;50.110;9.372;2023-04-24T23:52:15;7.3763107246311845;;;7.312;100.0
15558;BME280;7880;50.110;9.372;2023-04-24T23:57:19;7.270426259771921;;;7.25;100.0
